• Join FlightAware (Why Join?)
  • Login
  • US Flag 
10:34AM EDT


 

Airport Tracker/Info


-or-


 

Live Flight TrackerFlight Track Log ✈ DAL1562 ✈ 04-Jan-2014 ✈ KSRQ - KATL

Flight Track Log - Related Links

Times and Time Zones

All times are in EST time to prevent confusion due to time zone crossing. See the DAL1562 flight status page for this flight to view local times or setup timezone preferences in your user account.

Time Position Orientation Groundspeed Altitude Reporting Facility
EST Latitude Longitude Course Direction KTS MPH feet Rate Location/Type
01:51PM 27.3833 -82.5500 North 174 200 800  Level Tampa TRACON
01:51PM 27.3667 -82.5333 138° Southeast 160 184 1,700 2,400 Climbing Tampa TRACON
01:53PM 27.3081 -82.5336 180° South 153 176 5,600 2,160 Climbing Miami Center
01:54PM 27.7236 -82.6470 North  Level Estimated
01:54PM 27.3431 -82.5983 301° West 91 105 7,300  Level Miami Center
01:55PM 27.8330 -82.6781 North  Level Estimated
01:55PM 27.3903 -82.6683 307° West 204 235 10,100  Level Miami Center
01:56PM 27.9424 -82.7091 North  Level Estimated
01:56PM 27.4414 -82.7506 305° West 259 298 12,100  Level Miami Center
01:57PM 27.5208 -82.7967 333° Northwest 312 359 14,100 2,160 Climbing Miami Center
01:59PM 27.7703 -82.7847 North 360 414 19,600 1,860 Climbing Jacksonville Center
02:00PM 27.8808 -82.7869 359° North 373 429 20,500 720 Climbing Jacksonville Center
02:01PM 27.9872 -82.7869 360° North 392 451 21,100 600 Climbing Jacksonville Center
02:02PM 28.1144 -82.7844 North 426 490 21,700 900 Climbing Jacksonville Center
02:03PM 28.2481 -82.7842 360° North 456 525 23,000 1,200 Climbing Jacksonville Center
02:04PM 28.3856 -82.7839 360° North 478 550 24,100 1,140 Climbing Jacksonville Center
02:05PM 28.5150 -82.8147 348° North 478 550 25,300 1,260 Climbing Jacksonville Center
02:06PM 28.6403 -82.8736 338° Northwest 478 550 26,700 1,380 Climbing Jacksonville Center
02:07PM 28.7697 -82.9542 331° Northwest 478 550 28,200 1,380 Climbing Jacksonville Center
02:08PM 28.8844 -83.0183 334° Northwest 470 541 29,500 1,020 Climbing Jacksonville Center
02:09PM 29.0014 -83.0897 332° Northwest 470 541 30,300 840 Climbing Jacksonville Center
02:10PM 29.1222 -83.1564 334° Northwest 470 541 31,200 1,020 Climbing Jacksonville Center
02:11PM 29.2389 -83.2258 333° Northwest 470 541 32,400 840 Climbing Jacksonville Center
02:12PM 29.3556 -83.2953 333° Northwest 470 541 32,900 660 Climbing Jacksonville Center
02:13PM 29.4744 -83.3650 333° Northwest 470 541 33,800 540 Climbing Jacksonville Center
02:14PM 29.5931 -83.4322 334° Northwest 470 541 34,000 60 Climbing Jacksonville Center
02:15PM 29.7117 -83.5022 333° Northwest 470 541 34,000 -60 Level Jacksonville Center
02:16PM 29.8158 -83.5653 332° Northwest 470 541 33,900  Descending Jacksonville Center
02:17PM 29.9325 -83.6331 333° Northwest 470 541 34,000  Climbing Jacksonville Center
02:18PM 30.0469 -83.6989 334° Northwest 470 541 34,000  Level Jacksonville Center
02:19PM 30.1653 -83.7694 333° Northwest 470 541 34,000  Level Jacksonville Center
02:20PM 30.2797 -83.8356 333° Northwest 470 541 34,000  Level Jacksonville Center
02:21PM 30.3942 -83.9042 333° Northwest 470 541 34,000  Level Jacksonville Center
02:22PM 30.5083 -83.9728 333° Northwest 465 535 34,000  Level Jacksonville Center
02:23PM 30.6206 -84.0392 333° Northwest 457 526 34,000  Level Jacksonville Center
02:24PM 30.7325 -84.1106 331° Northwest 457 526 34,000  Level Jacksonville Center
02:25PM 30.8467 -84.1797 333° Northwest 457 526 34,000  Level Jacksonville Center
02:26PM 30.9589 -84.2467 333° Northwest 457 526 34,000  Level Jacksonville Center
02:27PM 31.0728 -84.3164 332° Northwest 457 526 34,000  Level Jacksonville Center
02:29PM 31.3200 -84.4692 332° Northwest 456 525 34,000  Level Atlanta Center
02:30PM 31.4325 -84.5378 333° Northwest 451 519 34,000  Level Atlanta Center
02:31PM 31.5428 -84.6067 332° Northwest 456 525 34,000  Level Atlanta Center
02:32PM 31.6553 -84.6756 332° Northwest 451 519 34,000  Level Atlanta Center
02:33PM 31.7675 -84.7447 332° Northwest 451 519 34,000 -660 Level Atlanta Center
02:34PM 31.8800 -84.8117 333° Northwest 456 525 32,700 -1,080 Descending Atlanta Center
02:35PM 32.0047 -84.8544 344° North 461 531 31,900 -960 Descending Atlanta Center
02:36PM 32.1319 -84.8997 343° North 466 536 30,800 -1,140 Descending Atlanta Center
02:37PM 32.2692 -84.9403 346° North 466 536 29,700 -1,560 Descending Atlanta Center
02:38PM 32.3964 -84.9833 344° North 471 542 27,700 -2,400 Descending Atlanta Center
02:39PM 32.5275 -85.0292 344° North 480 552 24,900 -2,880 Descending Atlanta Center
02:40PM 32.6442 -85.0453 353° North 450 518 22,000 -3,000 Descending Atlanta Center
02:41PM 32.7611 -85.0417 North 450 518 19,000 -3,000 Descending Atlanta Center
02:42PM 32.8989 -85.0433 359° North 450 518 16,100 -2,520 Descending Atlanta Center
02:43PM 33.0053 -85.0419 North 434 499 14,000 -1,920 Descending Atlanta Center
02:44PM 33.1161 -85.0408 360° North 409 471 12,300 -1,200 Descending Atlanta Center
02:45PM 33.2103 -85.0097 15° North 370 426 11,700 -1,080 Descending Atlanta Center
02:46PM 33.2672 -84.9283 50° Northeast 309 356 10,200 -1,500 Descending Atlanta Center
02:47PM 33.3261 -84.8494 48° Northeast 309 356 8,700 -1,500 Descending Atlanta Center
02:48PM 33.3994 -84.8128 23° Northeast 287 330 7,200 -1,680 Descending Atlanta Center
02:49PM 33.4892 -84.8133 360° North 282 325 5,400 -1,680 Descending Atlanta Center
02:50PM 33.5686 -84.8092 North 287 330 3,900 -1,140 Descending Atlanta Center
02:51PM 33.6189 -84.7572 41° Northeast 242 278 3,200 -480 Descending Atlanta Center
02:52PM 33.6214 -84.6975 87° East 180 207 3,000 -120 Descending Atlanta Center
02:54PM 33.6167 -84.5667 92° East 179 206 3,000 -300 Level Atlanta TRACON
02:55PM 33.6167 -84.5167 90° East 164 189 2,100 -840 Descending Atlanta TRACON
02:56PM 33.6167 -84.4667 90° East 138 159 1,400 -780 Descending Atlanta TRACON